Time;durP1;ratioP1;P1;durP2;ratioP2;P2;SDS_P1;SDS_P2;PMS_P1;PMS_P2;Temp;Humidity;BMP_temperature;BMP_pressure;BME280_temperature;BME280_humidity;BME280_pressure;Samples;Min_cycle;Max_cycle;Signal;HPM_P1;HPM_P2
2023/04/10 00:01:37;;;;;;;;;;;;;;;11.60;46.96;101106.38;4945121;28;7212;-77
2023/04/10 00:04:04;;;;;;;;;;;;;;;11.59;46.51;101109.72;4953545;28;7077;-77
2023/04/10 00:06:31;;;;;;;;;;;;;;;11.53;46.92;101098.34;4949557;28;6788;-77
2023/04/10 00:08:58;;;;;;;;;;;;;;;11.49;47.28;101101.53;4966929;28;7188;-76
2023/04/10 00:11:25;;;;;;;;;;;;;;;11.45;47.00;101093.59;4961653;28;6894;-76
2023/04/10 00:13:51;;;;;;;;;;;;;;;11.43;47.19;101097.72;4955502;28;6812;-76
2023/04/10 00:16:17;;;;;;;;;;;;;;;11.42;47.20;101089.16;4951682;28;6976;-76
2023/04/10 00:18:42;;;;;;;;;;;;;;;11.42;46.90;101086.59;4952454;28;6772;-76
2023/04/10 00:21:08;;;;;;;;;;;;;;;11.43;47.17;101084.91;4960014;28;6780;-76
2023/04/10 00:23:34;;;;;;;;;;;;;;;11.46;47.22;101087.66;4967307;28;6991;-76
2023/04/10 00:26:00;;;;;;;;;;;;;;;11.49;47.15;101086.16;4973135;28;6910;-76
2023/04/10 00:28:26;;;;;;;;;;;;;;;11.55;47.13;101077.00;4963503;28;7412;-76
2023/04/10 00:30:52;;;;;;;;;;;;;;;11.61;47.20;101080.78;4961589;28;6768;-76
2023/04/10 00:33:17;;;;;;;;;;;;;;;11.67;46.70;101070.84;4955380;28;6784;-76
2023/04/10 00:35:43;;;;;;;;;;;;;;;11.74;46.95;101079.75;4959521;28;6772;-76
2023/04/10 00:38:09;;;;;;;;;;;;;;;11.79;46.34;101070.63;4964269;28;6780;-76
2023/04/10 00:40:35;;;;;;;;;;;;;;;11.85;46.78;101058.91;4950688;28;7010;-76
2023/04/10 00:43:00;;;;;;;;;;;;;;;11.88;46.65;101053.91;4963714;28;7241;-77
2023/04/10 00:45:26;;;;;;;;;;;;;;;11.90;46.04;101050.63;4948916;28;6800;-77
2023/04/10 00:47:53;;;;;;;;;;;;;;;11.91;45.94;101043.84;4947198;28;7010;-76
2023/04/10 00:50:20;;;;;;;;;;;;;;;11.88;45.85;101038.50;4964748;28;7001;-76
2023/04/10 00:52:47;;;;;;;;;;;;;;;11.88;46.44;101033.38;4930730;28;8155;-76
2023/04/10 00:55:14;;;;;;;;;;;;;;;11.86;46.39;101034.97;4952772;28;7205;-76
2023/04/10 00:57:45;;;;;;;;;;;;;;;11.84;46.57;101021.19;4954454;28;6931;-76
2023/04/10 01:00:16;;;;;;;;;;;;;;;11.79;46.39;101023.50;4969458;28;6811;-77
2023/04/10 01:02:41;;;;;;;;;;;;;;;11.77;46.75;101025.13;4950880;28;7701;-77
2023/04/10 01:05:10;;;;;;;;;;;;;;;11.73;46.18;101023.16;4969844;28;7591;-76
2023/04/10 01:08:03;;;;;;;;;;;;;;;11.70;46.55;101018.78;4937907;28;7085;-77
2023/04/10 01:10:55;;;;;;;;;;;;;;;11.69;46.48;101022.16;4949653;28;7273;-77
2023/04/10 01:13:29;;;;;;;;;;;;;;;11.72;46.86;101016.28;4953705;28;7086;-76
2023/04/10 01:16:14;;;;;;;;;;;;;;;11.77;46.08;101004.56;4955476;28;7298;-77
2023/04/10 01:18:56;;;;;;;;;;;;;;;11.81;46.16;101001.34;4931205;28;7017;-76
2023/04/10 01:21:23;;;;;;;;;;;;;;;11.85;46.20;101000.72;4950077;28;7056;-76
2023/04/10 01:24:27;;;;;;;;;;;;;;;11.88;46.00;100999.97;4963246;28;6828;-76
2023/04/10 01:27:22;;;;;;;;;;;;;;;11.89;45.54;100994.06;4937998;28;6813;-76
2023/04/10 01:29:55;;;;;;;;;;;;;;;11.87;45.69;100986.28;4969513;28;7213;-76
2023/04/10 01:32:23;;;;;;;;;;;;;;;11.89;45.83;100983.78;4933478;28;6992;-76
2023/04/10 01:34:55;;;;;;;;;;;;;;;11.90;45.66;100985.56;4960655;28;6860;-76
2023/04/10 01:37:29;;;;;;;;;;;;;;;11.87;45.73;100981.13;4964723;28;7891;-76
2023/04/10 01:40:02;;;;;;;;;;;;;;;11.85;46.12;100979.28;4947549;28;6816;-76
2023/04/10 01:42:33;;;;;;;;;;;;;;;11.83;46.42;100983.47;4962031;28;7027;-76
2023/04/10 01:45:02;;;;;;;;;;;;;;;11.80;46.20;100984.19;4951527;28;7272;-77
2023/04/10 01:47:28;;;;;;;;;;;;;;;11.76;46.06;100983.13;4959895;28;6828;-76
2023/04/10 01:49:57;;;;;;;;;;;;;;;11.73;46.41;100987.22;4947684;28;7545;-76
2023/04/10 01:52:25;;;;;;;;;;;;;;;11.67;46.11;100978.41;4947495;28;6896;-76
2023/04/10 01:54:53;;;;;;;;;;;;;;;11.62;46.85;100990.09;4944226;28;7031;-76
2023/04/10 01:57:20;;;;;;;;;;;;;;;11.56;46.56;100984.66;4935491;28;6998;-76
2023/04/10 01:59:46;;;;;;;;;;;;;;;11.49;46.45;100987.69;4954697;28;7342;-76
2023/04/10 02:02:11;;;;;;;;;;;;;;;11.44;46.98;100989.13;4948011;28;6831;-77
2023/04/10 02:04:37;;;;;;;;;;;;;;;11.38;47.06;100980.31;4960840;28;6772;-76
2023/04/10 02:07:13;;;;;;;;;;;;;;;11.33;47.36;100989.44;4970434;28;7276;-76
2023/04/10 02:10:03;;;;;;;;;;;;;;;11.28;46.99;100977.16;4953304;28;6824;-76
2023/04/10 02:12:38;;;;;;;;;;;;;;;11.21;47.62;100979.41;4954161;28;7342;-76
2023/04/10 02:15:07;;;;;;;;;;;;;;;11.17;47.50;100982.56;4956147;28;7000;-76
2023/04/10 02:17:36;;;;;;;;;;;;;;;11.13;47.43;100983.22;4970379;28;6796;-76
2023/04/10 02:20:03;;;;;;;;;;;;;;;11.11;47.53;100979.69;4955597;28;6804;-77
2023/04/10 02:22:30;;;;;;;;;;;;;;;11.08;47.68;100989.75;4973904;28;6900;-77
2023/04/10 02:24:57;;;;;;;;;;;;;;;11.04;47.62;100985.28;4962074;28;6840;-76
2023/04/10 02:27:34;;;;;;;;;;;;;;;11.01;48.06;100977.41;4964145;28;6784;-76
2023/04/10 02:30:04;;;;;;;;;;;;;;;10.97;48.25;100973.81;4965687;28;6808;-76
2023/04/10 02:32:34;;;;;;;;;;;;;;;10.96;48.14;100977.13;4980006;28;6839;-76
2023/04/10 02:35:03;;;;;;;;;;;;;;;10.92;48.44;100973.53;4960781;28;8522;-74
2023/04/10 02:37:30;;;;;;;;;;;;;;;10.89;48.08;100973.34;4931992;28;6985;-74
2023/04/10 02:39:55;;;;;;;;;;;;;;;10.88;48.03;100974.16;4967940;28;7002;-77
2023/04/10 02:42:21;;;;;;;;;;;;;;;10.86;48.46;100965.50;4949742;28;6808;-74
2023/04/10 02:44:47;;;;;;;;;;;;;;;10.84;48.16;100959.41;4967630;28;6942;-74
2023/04/10 02:47:14;;;;;;;;;;;;;;;10.82;48.22;100955.88;4970203;28;6804;-73
2023/04/10 02:49:40;;;;;;;;;;;;;;;10.81;48.32;100959.22;4936234;28;7238;-76
2023/04/10 02:52:06;;;;;;;;;;;;;;;10.80;48.89;100952.31;4959580;28;6807;-76
2023/04/10 02:54:31;;;;;;;;;;;;;;;10.77;48.29;100947.94;4957841;28;6800;-76
2023/04/10 02:56:57;;;;;;;;;;;;;;;10.76;48.57;100948.69;4954372;28;6784;-76
2023/04/10 02:59:23;;;;;;;;;;;;;;;10.77;48.69;100952.16;4974311;28;6780;-76
2023/04/10 03:01:49;;;;;;;;;;;;;;;10.76;48.77;100947.84;4967219;28;6784;-76
2023/04/10 03:04:15;;;;;;;;;;;;;;;10.75;48.43;100943.50;4954894;28;7074;-75
2023/04/10 03:06:40;;;;;;;;;;;;;;;10.76;48.65;100947.84;4946383;28;8709;-76
2023/04/10 03:09:06;;;;;;;;;;;;;;;10.77;48.60;100944.47;4968688;28;6987;-75
2023/04/10 03:11:32;;;;;;;;;;;;;;;10.78;48.31;100943.66;4945411;28;6973;-75
2023/04/10 03:13:57;;;;;;;;;;;;;;;10.77;48.60;100927.41;4935686;28;8872;-76
2023/04/10 03:16:23;;;;;;;;;;;;;;;10.76;48.88;100941.00;4952697;28;7031;-76
2023/04/10 03:18:49;;;;;;;;;;;;;;;10.76;48.63;100929.88;4933456;28;7218;-76
2023/04/10 03:21:15;;;;;;;;;;;;;;;10.76;48.28;100919.63;4945933;28;7144;-76
2023/04/10 03:23:41;;;;;;;;;;;;;;;10.75;48.37;100923.00;4968320;28;7041;-76
2023/04/10 03:26:07;;;;;;;;;;;;;;;10.74;48.70;100927.22;4968481;28;6784;-76
2023/04/10 03:28:35;;;;;;;;;;;;;;;10.74;48.57;100928.94;4937330;28;8519;-76
2023/04/10 03:31:02;;;;;;;;;;;;;;;10.73;48.37;100934.84;4950965;28;8530;-76
2023/04/10 03:33:28;;;;;;;;;;;;;;;10.72;48.54;100923.69;4950616;28;6975;-76
2023/04/10 03:35:56;;;;;;;;;;;;;;;10.68;48.67;100922.66;4968480;28;7190;-76
2023/04/10 03:38:22;;;;;;;;;;;;;;;10.66;48.54;100913.09;4932866;28;6975;-76
2023/04/10 03:40:48;;;;;;;;;;;;;;;10.63;48.86;100918.06;4951957;28;7186;-76
2023/04/10 03:43:13;;;;;;;;;;;;;;;10.59;48.40;100911.88;4953479;28;7147;-76
2023/04/10 03:45:39;;;;;;;;;;;;;;;10.55;49.11;100913.38;4964265;28;6939;-76
2023/04/10 03:48:05;;;;;;;;;;;;;;;10.51;48.29;100915.69;4943694;28;7224;-76
2023/04/10 03:50:30;;;;;;;;;;;;;;;10.46;49.45;100909.44;4966537;28;6772;-76
2023/04/10 03:52:56;;;;;;;;;;;;;;;10.42;48.81;100909.22;4968583;28;7106;-76
2023/04/10 03:55:22;;;;;;;;;;;;;;;10.38;49.28;100909.84;4951454;28;6772;-76
2023/04/10 03:57:48;;;;;;;;;;;;;;;10.35;49.17;100903.66;4961137;28;6941;-76
2023/04/10 04:00:16;;;;;;;;;;;;;;;10.33;48.99;100905.25;4952451;28;7853;-76
2023/04/10 04:02:42;;;;;;;;;;;;;;;10.29;49.40;100901.63;4964903;28;6858;-76
2023/04/10 04:05:08;;;;;;;;;;;;;;;10.26;49.49;100893.78;4931417;28;8078;-76
2023/04/10 04:07:34;;;;;;;;;;;;;;;10.23;49.48;100901.25;4953872;28;8963;-76
2023/04/10 04:10:00;;;;;;;;;;;;;;;10.21;49.55;100895.19;4967529;28;7921;-76
2023/04/10 04:12:26;;;;;;;;;;;;;;;10.18;49.02;100887.31;4945302;28;6792;-76
2023/04/10 04:14:52;;;;;;;;;;;;;;;10.16;49.47;100894.91;4953748;28;8267;-76
2023/04/10 04:17:17;;;;;;;;;;;;;;;10.13;49.55;100892.19;4936777;28;6953;-76
2023/04/10 04:19:43;;;;;;;;;;;;;;;10.10;49.92;100887.75;4953608;28;7140;-76
2023/04/10 04:22:10;;;;;;;;;;;;;;;10.10;49.78;100890.31;4959928;28;6973;-76
2023/04/10 04:24:36;;;;;;;;;;;;;;;10.09;49.72;100893.69;4961987;28;7190;-76
2023/04/10 04:27:01;;;;;;;;;;;;;;;10.08;49.37;100886.78;4945839;28;7046;-76
2023/04/10 04:29:27;;;;;;;;;;;;;;;10.09;49.32;100886.00;4978920;28;6772;-76
2023/04/10 04:31:53;;;;;;;;;;;;;;;10.07;50.01;100885.03;4960618;28;6800;-75
2023/04/10 04:34:18;;;;;;;;;;;;;;;10.06;49.76;100890.94;4977015;28;6839;-76
2023/04/10 04:36:44;;;;;;;;;;;;;;;10.03;49.74;100880.50;4954314;28;7241;-76
2023/04/10 04:39:10;;;;;;;;;;;;;;;10.03;50.08;100887.31;4952729;28;6951;-76
2023/04/10 04:41:35;;;;;;;;;;;;;;;10.02;50.02;100891.53;4935308;28;7280;-76
2023/04/10 04:44:01;;;;;;;;;;;;;;;10.01;49.70;100884.66;4967056;28;6760;-76
2023/04/10 04:46:27;;;;;;;;;;;;;;;10.00;49.26;100885.47;4964268;28;6846;-76
2023/04/10 04:48:53;;;;;;;;;;;;;;;10.01;50.05;100879.53;4952528;28;6813;-76
2023/04/10 04:51:19;;;;;;;;;;;;;;;10.02;50.25;100880.44;4969141;28;6800;-76
2023/04/10 04:53:45;;;;;;;;;;;;;;;10.00;50.26;100871.00;4968707;28;6976;-76
2023/04/10 04:56:10;;;;;;;;;;;;;;;10.00;50.25;100868.44;4955507;28;7181;-76
2023/04/10 04:58:36;;;;;;;;;;;;;;;10.00;50.28;100870.09;4938679;28;6954;-76
2023/04/10 05:01:02;;;;;;;;;;;;;;;10.00;50.23;100868.44;4930536;28;7151;-73
2023/04/10 05:03:28;;;;;;;;;;;;;;;10.03;50.14;100870.25;4956987;28;7219;-72
2023/04/10 05:05:54;;;;;;;;;;;;;;;10.05;50.07;100872.94;4979599;28;7083;-72
2023/04/10 05:08:20;;;;;;;;;;;;;;;10.08;50.23;100878.22;4976752;28;7038;-74
2023/04/10 05:10:45;;;;;;;;;;;;;;;10.12;50.27;100875.06;4946004;28;7639;-73
2023/04/10 05:13:11;;;;;;;;;;;;;;;10.16;50.34;100876.13;4974219;28;7158;-77
2023/04/10 05:15:38;;;;;;;;;;;;;;;10.20;49.96;100878.03;4957796;28;6771;-74
2023/04/10 05:18:04;;;;;;;;;;;;;;;10.24;50.24;100880.00;4977864;28;6854;-74
2023/04/10 05:20:30;;;;;;;;;;;;;;;10.28;50.06;100879.38;4960890;28;6784;-75
2023/04/10 05:22:57;;;;;;;;;;;;;;;10.31;50.15;100879.53;4951460;28;6987;-76
2023/04/10 05:25:23;;;;;;;;;;;;;;;10.36;49.71;100882.34;4976414;28;6839;-74
2023/04/10 05:27:49;;;;;;;;;;;;;;;10.42;50.21;100883.59;4959762;28;7291;-72
2023/04/10 05:30:15;;;;;;;;;;;;;;;10.49;50.15;100866.03;4960616;28;7575;-72
2023/04/10 05:32:40;;;;;;;;;;;;;;;10.56;49.60;100870.69;4961485;28;7100;-72
2023/04/10 05:35:07;;;;;;;;;;;;;;;10.65;49.93;100865.19;4981729;28;6993;-72
2023/04/10 05:37:32;;;;;;;;;;;;;;;10.74;50.17;100859.69;4951246;28;7060;-74
2023/04/10 05:39:59;;;;;;;;;;;;;;;10.84;49.80;100856.84;4959766;28;6946;-75
2023/04/10 05:42:24;;;;;;;;;;;;;;;10.94;49.79;100853.06;4978448;28;7020;-76
2023/04/10 05:44:51;;;;;;;;;;;;;;;11.04;49.77;100854.47;4955999;28;6966;-76
2023/04/10 05:47:17;;;;;;;;;;;;;;;11.14;49.68;100854.16;4957633;28;7063;-72
2023/04/10 05:49:43;;;;;;;;;;;;;;;11.27;49.93;100852.22;4956140;28;7199;-75
2023/04/10 05:52:08;;;;;;;;;;;;;;;11.37;49.70;100842.53;4962830;28;6799;-75
2023/04/10 05:54:34;;;;;;;;;;;;;;;11.50;49.64;100838.00;4965070;28;6782;-73
2023/04/10 05:57:00;;;;;;;;;;;;;;;11.65;49.66;100846.50;4983533;28;7029;-73
2023/04/10 05:59:26;;;;;;;;;;;;;;;11.79;49.46;100839.50;4983862;28;6796;-73
2023/04/10 06:01:52;;;;;;;;;;;;;;;11.92;49.22;100833.25;4971742;28;6954;-72
2023/04/10 06:04:17;;;;;;;;;;;;;;;12.08;48.89;100834.94;4964871;28;7198;-74
2023/04/10 06:06:43;;;;;;;;;;;;;;;12.25;49.23;100840.00;4961133;28;6784;-73
2023/04/10 06:09:09;;;;;;;;;;;;;;;12.42;48.72;100842.50;4957293;28;6959;-73
2023/04/10 06:11:34;;;;;;;;;;;;;;;12.58;48.28;100841.53;4965429;28;6781;-73
2023/04/10 06:14:00;;;;;;;;;;;;;;;12.72;48.51;100843.06;4955610;28;7567;-73
2023/04/10 06:16:26;;;;;;;;;;;;;;;12.89;48.12;100850.66;4959240;28;7246;-70
2023/04/10 06:18:53;;;;;;;;;;;;;;;13.03;47.27;100835.84;4964130;28;6933;-71
2023/04/10 06:21:19;;;;;;;;;;;;;;;13.17;47.01;100842.50;4978756;28;7461;-72
2023/04/10 06:23:44;;;;;;;;;;;;;;;13.30;46.75;100840.47;4951966;28;6783;-72
2023/04/10 06:26:10;;;;;;;;;;;;;;;13.43;46.65;100839.31;4973330;28;6808;-72
2023/04/10 06:28:36;;;;;;;;;;;;;;;13.53;46.43;100838.06;4954078;28;6800;-73
2023/04/10 06:31:03;;;;;;;;;;;;;;;13.63;46.52;100836.75;4956605;28;7031;-72
2023/04/10 06:33:29;;;;;;;;;;;;;;;13.70;45.72;100829.34;4963541;28;6808;-71
2023/04/10 06:35:54;;;;;;;;;;;;;;;13.78;46.34;100836.50;4949694;28;7298;-72
2023/04/10 06:38:20;;;;;;;;;;;;;;;13.82;46.05;100838.41;4963548;28;7203;-73
2023/04/10 06:40:46;;;;;;;;;;;;;;;13.89;45.75;100835.25;4966765;28;6784;-72
2023/04/10 06:43:11;;;;;;;;;;;;;;;13.94;45.48;100844.06;4964880;28;6973;-71
2023/04/10 06:45:37;;;;;;;;;;;;;;;13.98;45.52;100840.78;4963244;28;6848;-73
2023/04/10 06:48:04;;;;;;;;;;;;;;;14.02;45.16;100840.13;4967856;28;6784;-71
2023/04/10 06:50:29;;;;;;;;;;;;;;;14.09;45.18;100848.06;4977432;28;7016;-73
2023/04/10 06:52:58;;;;;;;;;;;;;;;14.11;45.51;100842.19;4956097;28;6983;-72
2023/04/10 06:55:25;;;;;;;;;;;;;;;14.15;44.95;100833.78;4976220;28;7273;-72
2023/04/10 06:57:51;;;;;;;;;;;;;;;14.21;44.77;100827.09;4965670;28;6823;-73
2023/04/10 07:00:18;;;;;;;;;;;;;;;14.25;45.25;100829.84;4967554;28;8661;-72
2023/04/10 07:02:44;;;;;;;;;;;;;;;14.28;45.00;100835.13;4943554;28;6979;-74
2023/04/10 07:05:10;;;;;;;;;;;;;;;14.36;45.00;100831.97;4958936;28;6808;-72
2023/04/10 07:07:36;;;;;;;;;;;;;;;14.43;44.48;100828.81;4959853;28;6760;-72
2023/04/10 07:10:02;;;;;;;;;;;;;;;14.51;44.62;100826.53;4981517;28;7269;-72
2023/04/10 07:12:28;;;;;;;;;;;;;;;14.60;44.34;100824.31;4947567;28;7026;-73
2023/04/10 07:14:53;;;;;;;;;;;;;;;14.70;44.27;100812.66;4965920;28;6958;-73
2023/04/10 07:17:19;;;;;;;;;;;;;;;14.81;44.60;100815.63;4976780;28;6768;-73
2023/04/10 07:19:45;;;;;;;;;;;;;;;14.93;44.89;100815.22;4965045;28;8226;-72
2023/04/10 07:22:11;;;;;;;;;;;;;;;15.04;44.31;100808.75;4979046;28;6783;-75
2023/04/10 07:24:37;;;;;;;;;;;;;;;15.14;43.92;100800.50;4963182;28;6924;-72
2023/04/10 07:27:02;;;;;;;;;;;;;;;15.27;43.51;100799.25;4976372;28;6805;-74
2023/04/10 07:29:29;;;;;;;;;;;;;;;15.41;43.78;100794.56;4976424;28;6768;-75
2023/04/10 07:31:55;;;;;;;;;;;;;;;15.59;43.69;100789.97;4967180;28;6806;-76
2023/04/10 07:34:20;;;;;;;;;;;;;;;15.75;43.51;100789.66;4978697;28;6823;-76
2023/04/10 07:36:47;;;;;;;;;;;;;;;15.93;43.63;100783.34;4972350;28;7022;-75
2023/04/10 07:39:12;;;;;;;;;;;;;;;16.12;43.36;100784.81;4963399;28;6804;-76
2023/04/10 07:41:39;;;;;;;;;;;;;;;16.32;43.08;100776.78;4961966;28;6840;-76
2023/04/10 07:44:05;;;;;;;;;;;;;;;16.51;43.14;100784.31;4956474;28;7264;-76
2023/04/10 07:46:30;;;;;;;;;;;;;;;16.70;43.16;100778.78;4964283;28;7280;-76
2023/04/10 07:48:56;;;;;;;;;;;;;;;16.86;42.62;100775.78;4980446;28;6959;-75
2023/04/10 07:51:22;;;;;;;;;;;;;;;17.00;41.66;100776.22;4963323;28;6987;-75
2023/04/10 07:53:48;;;;;;;;;;;;;;;17.14;41.67;100763.66;4962255;28;6796;-75
2023/04/10 07:56:19;;;;;;;;;;;;;;;17.30;41.55;100767.50;4963905;28;7212;-75
2023/04/10 07:58:46;;;;;;;;;;;;;;;17.42;41.07;100763.47;4960299;28;6788;-75
2023/04/10 08:01:11;;;;;;;;;;;;;;;17.52;41.19;100747.31;4961572;28;8140;-75
2023/04/10 08:03:43;;;;;;;;;;;;;;;17.61;40.91;100744.97;4964062;28;7993;-76
2023/04/10 08:06:10;;;;;;;;;;;;;;;17.70;41.02;100740.84;4944659;28;6986;-76
2023/04/10 08:08:40;;;;;;;;;;;;;;;17.80;40.72;100742.81;4945934;28;7400;-75
2023/04/10 08:11:30;;;;;;;;;;;;;;;17.94;40.23;100734.47;4969151;28;6864;-75
2023/04/10 08:14:02;;;;;;;;;;;;;;;18.00;40.04;100729.44;4945018;28;7063;-74
2023/04/10 08:16:30;;;;;;;;;;;;;;;18.05;39.78;100725.25;4959904;28;7325;-74
2023/04/10 08:18:57;;;;;;;;;;;;;;;18.09;39.46;100723.59;4970290;28;6828;-74
2023/04/10 08:21:26;;;;;;;;;;;;;;;18.09;39.67;100719.31;4962360;28;7019;-75
2023/04/10 08:24:01;;;;;;;;;;;;;;;18.12;39.58;100715.91;4971893;28;6812;-75
2023/04/10 08:26:28;;;;;;;;;;;;;;;18.11;39.59;100708.97;4980092;28;6796;-74
2023/04/10 08:28:59;;;;;;;;;;;;;;;18.07;39.24;100708.03;4974936;28;7030;-74
2023/04/10 08:31:27;;;;;;;;;;;;;;;18.04;39.20;100710.53;4977117;28;6799;-74
2023/04/10 08:33:53;;;;;;;;;;;;;;;18.01;39.36;100705.25;4965536;28;6982;-75
2023/04/10 08:36:18;;;;;;;;;;;;;;;18.01;39.34;100706.16;4946763;28;7207;-75
2023/04/10 08:38:45;;;;;;;;;;;;;;;18.04;39.57;100690.69;4961056;28;7332;-74
2023/04/10 08:41:15;;;;;;;;;;;;;;;18.10;39.75;100691.63;4939689;28;6998;-75
2023/04/10 08:43:42;;;;;;;;;;;;;;;18.20;39.39;100692.72;4973626;28;6860;-75
2023/04/10 08:46:08;;;;;;;;;;;;;;;18.36;39.61;100699.09;4948293;28;6853;-75
2023/04/10 08:49:01;;;;;;;;;;;;;;;18.53;39.56;100695.13;4949677;28;6969;-75
2023/04/10 08:51:41;;;;;;;;;;;;;;;18.72;40.08;100695.50;4963379;28;6976;-75
2023/04/10 08:54:17;;;;;;;;;;;;;;;18.93;39.79;100700.22;4980117;28;6792;-75
2023/04/10 08:56:52;;;;;;;;;;;;;;;19.21;39.50;100690.31;4968021;28;6828;-75
2023/04/10 08:59:19;;;;;;;;;;;;;;;19.48;40.09;100691.63;4963485;28;7022;-75
2023/04/10 09:01:46;;;;;;;;;;;;;;;19.75;39.51;100685.13;4962003;28;6795;-75
2023/04/10 09:04:12;;;;;;;;;;;;;;;20.01;39.22;100689.84;4978057;28;7279;-75
2023/04/10 09:06:38;;;;;;;;;;;;;;;20.24;39.05;100692.75;4979369;28;6872;-75
2023/04/10 09:09:07;;;;;;;;;;;;;;;20.47;38.17;100699.09;4978920;28;6842;-75
2023/04/10 09:11:51;;;;;;;;;;;;;;;20.69;38.15;100695.00;4978277;28;6859;-75
2023/04/10 09:14:22;;;;;;;;;;;;;;;20.83;37.77;100695.19;4974331;28;8111;-75
2023/04/10 09:16:48;;;;;;;;;;;;;;;20.97;37.71;100686.66;4962330;28;6796;-74
2023/04/10 09:19:32;;;;;;;;;;;;;;;21.15;37.69;100672.91;4980420;28;6812;-75
2023/04/10 09:21:58;;;;;;;;;;;;;;;21.32;36.92;100665.22;4976491;28;6792;-75
2023/04/10 09:24:25;;;;;;;;;;;;;;;21.47;36.13;100670.56;4958191;28;6995;-75
2023/04/10 09:26:51;;;;;;;;;;;;;;;21.61;35.45;100669.75;4966748;28;6784;-75
2023/04/10 09:29:17;;;;;;;;;;;;;;;21.70;35.59;100662.03;4982326;28;7035;-75
2023/04/10 09:31:42;;;;;;;;;;;;;;;21.76;34.85;100659.47;4982184;28;6768;-75
2023/04/10 09:34:18;;;;;;;;;;;;;;;21.82;34.20;100660.34;4967292;28;6859;-75
2023/04/10 09:36:56;;;;;;;;;;;;;;;21.84;33.64;100658.66;4977044;28;6788;-75
2023/04/10 09:39:34;;;;;;;;;;;;;;;21.88;33.46;100657.78;4974806;28;6800;-75
2023/04/10 09:42:00;;;;;;;;;;;;;;;21.90;33.64;100653.44;4979557;28;7011;-79
2023/04/10 09:44:35;;;;;;;;;;;;;;;21.96;33.21;100643.06;4984872;28;7039;-79
2023/04/10 09:47:13;;;;;;;;;;;;;;;22.06;33.21;100637.00;4944401;28;6984;-80
2023/04/10 09:49:47;;;;;;;;;;;;;;;22.17;33.06;100631.84;4989247;28;7151;-80
2023/04/10 09:52:26;;;;;;;;;;;;;;;22.30;32.46;100632.72;4947026;28;7293;-82
2023/04/10 09:55:01;;;;;;;;;;;;;;;22.41;31.61;100624.94;4985932;28;6815;-80
2023/04/10 09:57:30;;;;;;;;;;;;;;;22.54;31.88;100622.38;4969740;28;7044;-84
2023/04/10 10:00:03;;;;;;;;;;;;;;;22.68;31.48;100617.19;4965156;28;7146;-80
2023/04/10 10:02:35;;;;;;;;;;;;;;;22.81;31.40;100608.50;4961348;28;7126;-79
2023/04/10 10:05:04;;;;;;;;;;;;;;;22.87;31.31;100605.00;4978791;28;6795;-79
2023/04/10 10:07:30;;;;;;;;;;;;;;;22.95;31.13;100605.00;4952831;28;6868;-82
2023/04/10 10:09:57;;;;;;;;;;;;;;;23.03;30.91;100595.44;4985368;28;7309;-75
2023/04/10 10:12:58;;;;;;;;;;;;;;;23.08;31.13;100595.41;4982826;28;6816;-77
2023/04/10 10:15:57;;;;;;;;;;;;;;;23.05;30.43;100584.97;4954217;28;7548;-77
2023/04/10 10:19:14;;;;;;;;;;;;;;;22.92;30.41;100576.28;4969031;28;6796;-78
2023/04/10 10:21:43;;;;;;;;;;;;;;;22.75;30.26;100571.91;4971797;28;6995;-79
2023/04/10 10:24:11;;;;;;;;;;;;;;;22.68;30.33;100564.94;4974438;28;6975;-81
2023/04/10 10:26:41;;;;;;;;;;;;;;;22.55;30.14;100566.66;4976074;28;7025;-78
2023/04/10 10:29:09;;;;;;;;;;;;;;;22.45;30.49;100563.16;4958515;28;7506;-81
2023/04/10 10:31:36;;;;;;;;;;;;;;;22.41;30.42;100561.41;4975086;28;7099;-79
2023/04/10 10:34:04;;;;;;;;;;;;;;;22.38;30.88;100550.94;4983619;28;8260;-81
2023/04/10 10:36:33;;;;;;;;;;;;;;;22.36;31.19;100552.69;4955093;28;6958;-80
2023/04/10 10:39:27;;;;;;;;;;;;;;;22.37;31.26;100551.81;4962635;28;6959;-77
2023/04/10 10:42:17;;;;;;;;;;;;;;;22.36;30.53;100555.31;4956898;28;6824;-78
2023/04/10 10:45:06;;;;;;;;;;;;;;;22.32;30.61;100557.91;4962398;28;6985;-81
2023/04/10 10:47:37;;;;;;;;;;;;;;;22.32;30.38;100557.91;4972281;28;6815;-80
2023/04/10 10:50:04;;;;;;;;;;;;;;;22.30;30.09;100553.56;4963279;28;6815;-84
2023/04/10 10:52:48;;;;;;;;;;;;;;;22.21;29.84;100538.72;4963416;28;6804;-85
2023/04/10 10:55:23;;;;;;;;;;;;;;;22.13;29.58;100543.09;4964077;28;7208;-86
2023/04/10 10:57:59;;;;;;;;;;;;;;;22.15;29.88;100523.94;4965716;28;6800;-85
2023/04/10 11:00:49;;;;;;;;;;;;;;;22.15;30.07;100518.72;4965387;28;7167;-82
2023/04/10 11:03:15;;;;;;;;;;;;;;;22.19;30.22;100503.94;4968634;28;6820;-80
2023/04/10 11:06:03;;;;;;;;;;;;;;;22.21;29.58;100512.63;4973286;28;7148;-85
2023/04/10 11:08:31;;;;;;;;;;;;;;;22.20;29.83;100513.50;4978448;28;6947;-86
2023/04/10 11:11:09;;;;;;;;;;;;;;;22.20;29.50;100511.78;4968691;28;6792;-85
2023/04/10 11:13:38;;;;;;;;;;;;;;;22.24;29.56;100507.44;4974019;28;6835;-84
2023/04/10 11:16:09;;;;;;;;;;;;;;;22.26;29.92;100508.28;4981810;28;8573;-84
2023/04/10 11:18:43;;;;;;;;;;;;;;;22.30;29.81;100510.03;4941961;28;7582;-75
2023/04/10 11:21:13;;;;;;;;;;;;;;;22.40;29.71;100492.66;4969260;28;6792;-83
2023/04/10 11:23:58;;;;;;;;;;;;;;;22.53;29.52;100495.28;4982883;28;8036;-83
2023/04/10 11:26:39;;;;;;;;;;;;;;;22.65;29.62;100497.03;4966299;28;7033;-83
2023/04/10 11:29:11;;;;;;;;;;;;;;;22.80;29.35;100496.16;4980002;28;6933;-81
2023/04/10 11:31:37;;;;;;;;;;;;;;;22.96;29.99;100481.31;4963863;28;6800;-83
2023/04/10 11:34:09;;;;;;;;;;;;;;;23.07;28.95;100476.91;4964589;28;6792;-83
2023/04/10 11:36:40;;;;;;;;;;;;;;;23.19;28.28;100468.19;4985242;28;6804;-82
2023/04/10 11:39:11;;;;;;;;;;;;;;;23.40;28.35;100456.81;4980844;28;7373;-80
2023/04/10 11:41:50;;;;;;;;;;;;;;;23.74;28.47;100454.91;4958146;28;7162;-82
2023/04/10 11:44:38;;;;;;;;;;;;;;;24.20;27.98;100445.91;4983325;28;6811;-79
2023/04/10 11:47:04;;;;;;;;;;;;;;;24.54;27.23;100438.63;4963959;28;7617;-84
2023/04/10 11:49:33;;;;;;;;;;;;;;;24.71;26.68;100444.59;4982798;28;8072;-84
2023/04/10 11:51:59;;;;;;;;;;;;;;;24.71;27.09;100437.56;4956418;28;7282;-83
2023/04/10 11:54:27;;;;;;;;;;;;;;;24.74;27.82;100437.56;4972007;28;7374;-81
2023/04/10 11:57:03;;;;;;;;;;;;;;;24.84;27.72;100429.63;4961518;28;6792;-82
2023/04/10 11:59:31;;;;;;;;;;;;;;;24.93;27.10;100432.16;4962390;28;6845;-76
2023/04/10 12:02:13;;;;;;;;;;;;;;;25.15;27.42;100435.38;4959007;28;7503;-76
2023/04/10 12:04:41;;;;;;;;;;;;;;;25.31;26.99;100424.72;4939722;28;7157;-76
2023/04/10 12:07:08;;;;;;;;;;;;;;;25.49;26.92;100431.47;4956094;28;7070;-76
2023/04/10 12:09:33;;;;;;;;;;;;;;;25.68;27.05;100432.13;4955498;28;6991;-76
2023/04/10 12:12:05;;;;;;;;;;;;;;;25.81;26.52;100421.44;4957668;28;6834;-76
2023/04/10 12:14:41;;;;;;;;;;;;;;;25.82;26.14;100424.03;4972438;28;6796;-76
2023/04/10 12:17:10;;;;;;;;;;;;;;;25.81;26.21;100419.69;4954696;28;6883;-75
2023/04/10 12:19:37;;;;;;;;;;;;;;;25.89;25.71;100415.19;4964767;28;6808;-74
2023/04/10 12:22:03;;;;;;;;;;;;;;;25.88;25.69;100410.84;4958909;28;6800;-74
2023/04/10 12:24:47;;;;;;;;;;;;;;;25.84;25.99;100418.78;4959565;28;6992;-76
2023/04/10 12:27:20;;;;;;;;;;;;;;;25.75;25.99;100404.91;4963587;28;6812;-76
2023/04/10 12:29:48;;;;;;;;;;;;;;;25.56;25.42;100404.28;4976884;28;6807;-76
2023/04/10 12:32:14;;;;;;;;;;;;;;;25.32;25.69;100401.09;4979797;28;6870;-76
2023/04/10 12:34:40;;;;;;;;;;;;;;;25.07;26.31;100409.25;4943554;28;7038;-75
2023/04/10 12:37:08;;;;;;;;;;;;;;;24.86;26.42;100405.13;4964498;28;6791;-76
2023/04/10 12:39:34;;;;;;;;;;;;;;;24.68;26.86;100404.44;4962592;28;7730;-75
2023/04/10 12:42:22;;;;;;;;;;;;;;;24.63;27.19;100400.97;4961234;28;7014;-75
2023/04/10 12:44:58;;;;;;;;;;;;;;;24.69;27.79;100389.56;4962134;28;6800;-75
2023/04/10 12:47:27;;;;;;;;;;;;;;;24.72;27.01;100388.66;4961975;28;6796;-76
2023/04/10 12:50:11;;;;;;;;;;;;;;;24.66;27.32;100381.75;4958676;28;6816;-75
2023/04/10 12:52:40;;;;;;;;;;;;;;;24.59;26.79;100380.06;4959722;28;6800;-76
2023/04/10 12:55:11;;;;;;;;;;;;;;;24.53;26.81;100384.50;4962136;28;8053;-76
2023/04/10 12:57:37;;;;;;;;;;;;;;;24.50;27.00;100381.06;4961224;28;7055;-76
2023/04/10 13:00:08;;;;;;;;;;;;;;;24.47;26.77;100373.19;4950106;28;6959;-75